sensor_id;sensor_type;location;lat;lon;timestamp;pressure;altitude;pressure_sealevel;temperature;humidity
41862;BME280;27537;57.134;-2.136;2022-08-20T00:00:42;100444.25;;;13.97;100.00
41862;BME280;27537;57.134;-2.136;2022-08-20T00:03:35;100455.22;;;14.05;100.00
41862;BME280;27537;57.134;-2.136;2022-08-20T00:06:09;100441.38;;;14.01;100.00
41862;BME280;27537;57.134;-2.136;2022-08-20T00:08:37;100426.44;;;13.70;100.00
41862;BME280;27537;57.134;-2.136;2022-08-20T00:11:07;100426.38;;;13.72;100.00
41862;BME280;27537;57.134;-2.136;2022-08-20T00:13:42;100427.66;;;13.64;100.00
41862;BME280;27537;57.134;-2.136;2022-08-20T00:16:10;100431.78;;;13.53;100.00
41862;BME280;27537;57.134;-2.136;2022-08-20T00:18:39;100429.00;;;13.72;100.00
41862;BME280;27537;57.134;-2.136;2022-08-20T00:21:10;100421.25;;;13.84;100.00
41862;BME280;27537;57.134;-2.136;2022-08-20T00:23:47;100434.53;;;13.99;100.00
41862;BME280;27537;57.134;-2.136;2022-08-20T00:26:14;100428.59;;;13.79;100.00
41862;BME280;27537;57.134;-2.136;2022-08-20T00:28:41;100432.31;;;13.91;100.00
41862;BME280;27537;57.134;-2.136;2022-08-20T00:31:10;100437.03;;;14.00;100.00
41862;BME280;27537;57.134;-2.136;2022-08-20T00:33:38;100434.78;;;13.94;100.00
41862;BME280;27537;57.134;-2.136;2022-08-20T00:36:06;100433.84;;;13.95;100.00
41862;BME280;27537;57.134;-2.136;2022-08-20T00:38:36;100426.13;;;13.76;100.00
41862;BME280;27537;57.134;-2.136;2022-08-20T00:41:05;100432.84;;;13.66;100.00
41862;BME280;27537;57.134;-2.136;2022-08-20T00:46:15;100422.72;;;13.42;100.00
41862;BME280;27537;57.134;-2.136;2022-08-20T00:48:44;100399.94;;;13.25;100.00
41862;BME280;27537;57.134;-2.136;2022-08-20T00:53:57;100412.91;;;13.28;100.00
41862;BME280;27537;57.134;-2.136;2022-08-20T00:56:29;100413.44;;;13.19;100.00
41862;BME280;27537;57.134;-2.136;2022-08-20T00:58:59;100418.09;;;13.30;100.00
41862;BME280;27537;57.134;-2.136;2022-08-20T01:01:26;100415.75;;;13.41;100.00
41862;BME280;27537;57.134;-2.136;2022-08-20T01:03:54;100413.72;;;13.46;100.00
41862;BME280;27537;57.134;-2.136;2022-08-20T01:06:23;100418.56;;;13.54;100.00
41862;BME280;27537;57.134;-2.136;2022-08-20T01:08:50;100406.34;;;13.37;100.00
41862;BME280;27537;57.134;-2.136;2022-08-20T01:11:17;100411.63;;;13.37;100.00
41862;BME280;27537;57.134;-2.136;2022-08-20T01:13:48;100374.56;;;13.08;100.00
41862;BME280;27537;57.134;-2.136;2022-08-20T01:16:20;100404.47;;;13.06;100.00
41862;BME280;27537;57.134;-2.136;2022-08-20T01:18:50;100390.53;;;13.21;100.00
41862;BME280;27537;57.134;-2.136;2022-08-20T01:21:19;100409.91;;;13.36;100.00
41862;BME280;27537;57.134;-2.136;2022-08-20T01:24:06;100416.91;;;13.20;100.00
41862;BME280;27537;57.134;-2.136;2022-08-20T01:26:40;100402.47;;;13.11;100.00
41862;BME280;27537;57.134;-2.136;2022-08-20T01:29:21;100416.66;;;13.24;100.00
41862;BME280;27537;57.134;-2.136;2022-08-20T01:31:49;100402.91;;;13.19;100.00
41862;BME280;27537;57.134;-2.136;2022-08-20T01:34:17;100403.97;;;13.15;100.00
41862;BME280;27537;57.134;-2.136;2022-08-20T01:36:47;100397.44;;;13.06;100.00
41862;BME280;27537;57.134;-2.136;2022-08-20T01:39:19;100368.19;;;12.97;100.00
41862;BME280;27537;57.134;-2.136;2022-08-20T01:41:54;100396.84;;;13.01;100.00
41862;BME280;27537;57.134;-2.136;2022-08-20T01:44:24;100377.75;;;12.98;100.00
41862;BME280;27537;57.134;-2.136;2022-08-20T01:46:53;100388.13;;;13.17;100.00
41862;BME280;27537;57.134;-2.136;2022-08-20T01:49:30;100391.53;;;13.19;100.00
41862;BME280;27537;57.134;-2.136;2022-08-20T01:52:00;100384.75;;;13.15;100.00
41862;BME280;27537;57.134;-2.136;2022-08-20T01:54:28;100384.44;;;12.87;100.00
41862;BME280;27537;57.134;-2.136;2022-08-20T01:57:05;100379.97;;;12.89;100.00
41862;BME280;27537;57.134;-2.136;2022-08-20T01:59:35;100352.38;;;12.81;100.00
41862;BME280;27537;57.134;-2.136;2022-08-20T02:02:02;100380.41;;;13.14;100.00
41862;BME280;27537;57.134;-2.136;2022-08-20T02:04:30;100346.59;;;12.74;100.00
41862;BME280;27537;57.134;-2.136;2022-08-20T02:06:59;100390.69;;;12.85;100.00
41862;BME280;27537;57.134;-2.136;2022-08-20T02:09:37;100369.19;;;12.94;100.00
41862;BME280;27537;57.134;-2.136;2022-08-20T02:12:07;100371.84;;;12.61;100.00
41862;BME280;27537;57.134;-2.136;2022-08-20T02:14:38;100377.78;;;12.47;100.00
41862;BME280;27537;57.134;-2.136;2022-08-20T02:17:05;100352.78;;;12.40;100.00
41862;BME280;27537;57.134;-2.136;2022-08-20T02:19:40;100364.34;;;12.35;100.00
41862;BME280;27537;57.134;-2.136;2022-08-20T02:22:15;100368.06;;;12.31;100.00
41862;BME280;27537;57.134;-2.136;2022-08-20T02:24:43;100344.03;;;12.39;100.00
41862;BME280;27537;57.134;-2.136;2022-08-20T02:27:10;100349.34;;;12.38;100.00
41862;BME280;27537;57.134;-2.136;2022-08-20T02:29:37;100355.34;;;12.24;100.00
41862;BME280;27537;57.134;-2.136;2022-08-20T02:32:04;100345.75;;;12.23;100.00
41862;BME280;27537;57.134;-2.136;2022-08-20T02:34:51;100335.09;;;12.08;100.00
41862;BME280;27537;57.134;-2.136;2022-08-20T02:37:18;100341.03;;;12.12;100.00
41862;BME280;27537;57.134;-2.136;2022-08-20T02:39:45;100353.41;;;12.45;100.00
41862;BME280;27537;57.134;-2.136;2022-08-20T02:42:12;100351.94;;;12.22;100.00
41862;BME280;27537;57.134;-2.136;2022-08-20T02:44:39;100336.97;;;12.06;100.00
41862;BME280;27537;57.134;-2.136;2022-08-20T02:47:07;100332.06;;;12.16;100.00
41862;BME280;27537;57.134;-2.136;2022-08-20T02:49:34;100335.78;;;12.12;100.00
41862;BME280;27537;57.134;-2.136;2022-08-20T02:52:00;100331.44;;;12.28;100.00
41862;BME280;27537;57.134;-2.136;2022-08-20T02:54:27;100334.34;;;12.06;100.00
41862;BME280;27537;57.134;-2.136;2022-08-20T02:56:55;100324.31;;;11.97;100.00
41862;BME280;27537;57.134;-2.136;2022-08-20T02:59:22;100331.16;;;12.17;100.00
41862;BME280;27537;57.134;-2.136;2022-08-20T03:01:48;100300.06;;;11.92;100.00
41862;BME280;27537;57.134;-2.136;2022-08-20T03:04:29;100293.53;;;11.82;100.00
41862;BME280;27537;57.134;-2.136;2022-08-20T03:06:57;100307.41;;;12.03;100.00
41862;BME280;27537;57.134;-2.136;2022-08-20T03:09:24;100293.59;;;12.17;100.00
41862;BME280;27537;57.134;-2.136;2022-08-20T03:11:51;100299.19;;;11.91;100.00
41862;BME280;27537;57.134;-2.136;2022-08-20T03:14:18;100283.53;;;12.07;100.00
41862;BME280;27537;57.134;-2.136;2022-08-20T03:16:45;100283.03;;;12.01;100.00
41862;BME280;27537;57.134;-2.136;2022-08-20T03:19:11;100310.22;;;12.33;100.00
41862;BME280;27537;57.134;-2.136;2022-08-20T03:21:39;100301.28;;;12.20;100.00
41862;BME280;27537;57.134;-2.136;2022-08-20T03:24:07;100259.91;;;12.07;100.00
41862;BME280;27537;57.134;-2.136;2022-08-20T03:26:34;100285.66;;;12.34;100.00
41862;BME280;27537;57.134;-2.136;2022-08-20T03:29:00;100286.34;;;12.38;100.00
41862;BME280;27537;57.134;-2.136;2022-08-20T03:31:27;100284.25;;;12.44;100.00
41862;BME280;27537;57.134;-2.136;2022-08-20T03:33:55;100277.75;;;12.51;100.00
41862;BME280;27537;57.134;-2.136;2022-08-20T03:36:22;100263.25;;;12.44;100.00
41862;BME280;27537;57.134;-2.136;2022-08-20T03:38:59;100264.66;;;12.34;100.00
41862;BME280;27537;57.134;-2.136;2022-08-20T03:41:26;100246.19;;;12.35;100.00
41862;BME280;27537;57.134;-2.136;2022-08-20T03:43:54;100238.53;;;12.15;100.00
41862;BME280;27537;57.134;-2.136;2022-08-20T03:46:21;100211.75;;;12.08;100.00
41862;BME280;27537;57.134;-2.136;2022-08-20T03:48:52;100229.31;;;12.41;100.00
41862;BME280;27537;57.134;-2.136;2022-08-20T03:51:28;100226.31;;;12.31;100.00
41862;BME280;27537;57.134;-2.136;2022-08-20T03:53:55;100223.44;;;12.36;100.00
41862;BME280;27537;57.134;-2.136;2022-08-20T03:56:21;100197.59;;;12.28;100.00
41862;BME280;27537;57.134;-2.136;2022-08-20T03:58:48;100199.88;;;12.19;100.00
41862;BME280;27537;57.134;-2.136;2022-08-20T04:01:15;100200.66;;;12.37;100.00
41862;BME280;27537;57.134;-2.136;2022-08-20T04:04:03;100210.50;;;12.49;100.00
41862;BME280;27537;57.134;-2.136;2022-08-20T04:06:30;100154.59;;;12.31;100.00
41862;BME280;27537;57.134;-2.136;2022-08-20T04:08:57;100175.59;;;12.47;100.00
41862;BME280;27537;57.134;-2.136;2022-08-20T04:11:24;100181.09;;;12.58;100.00
41862;BME280;27537;57.134;-2.136;2022-08-20T04:13:51;100203.56;;;12.80;100.00
41862;BME280;27537;57.134;-2.136;2022-08-20T04:16:18;100175.19;;;12.70;100.00
41862;BME280;27537;57.134;-2.136;2022-08-20T04:18:45;100201.53;;;12.85;100.00
41862;BME280;27537;57.134;-2.136;2022-08-20T04:21:29;100166.69;;;12.81;100.00
41862;BME280;27537;57.134;-2.136;2022-08-20T04:23:59;100193.06;;;12.80;100.00
41862;BME280;27537;57.134;-2.136;2022-08-20T04:26:26;100190.94;;;13.02;100.00
41862;BME280;27537;57.134;-2.136;2022-08-20T04:28:53;100193.31;;;13.07;100.00
41862;BME280;27537;57.134;-2.136;2022-08-20T04:31:21;100143.41;;;12.75;100.00
41862;BME280;27537;57.134;-2.136;2022-08-20T04:34:02;100165.88;;;12.81;100.00
41862;BME280;27537;57.134;-2.136;2022-08-20T04:36:30;100118.16;;;12.57;100.00
41862;BME280;27537;57.134;-2.136;2022-08-20T04:38:56;100144.03;;;12.48;100.00
41862;BME280;27537;57.134;-2.136;2022-08-20T04:41:23;100146.88;;;12.60;100.00
41862;BME280;27537;57.134;-2.136;2022-08-20T04:43:52;100159.94;;;12.61;100.00
41862;BME280;27537;57.134;-2.136;2022-08-20T04:46:21;100159.59;;;12.67;100.00
41862;BME280;27537;57.134;-2.136;2022-08-20T04:48:51;100163.31;;;12.63;100.00
41862;BME280;27537;57.134;-2.136;2022-08-20T04:51:19;100171.19;;;12.47;100.00
41862;BME280;27537;57.134;-2.136;2022-08-20T04:53:50;100139.44;;;12.52;100.00
41862;BME280;27537;57.134;-2.136;2022-08-20T04:56:25;100160.00;;;12.76;100.00
41862;BME280;27537;57.134;-2.136;2022-08-20T04:58:54;100153.84;;;12.61;100.00
41862;BME280;27537;57.134;-2.136;2022-08-20T05:01:21;100166.13;;;12.60;100.00
41862;BME280;27537;57.134;-2.136;2022-08-20T05:03:49;100164.75;;;12.69;100.00
41862;BME280;27537;57.134;-2.136;2022-08-20T05:06:16;100165.03;;;12.48;100.00
41862;BME280;27537;57.134;-2.136;2022-08-20T05:08:44;100153.34;;;12.70;100.00
41862;BME280;27537;57.134;-2.136;2022-08-20T05:11:11;100161.22;;;12.70;100.00
41862;BME280;27537;57.134;-2.136;2022-08-20T05:14:00;100159.34;;;12.88;100.00
41862;BME280;27537;57.134;-2.136;2022-08-20T05:16:27;100152.44;;;12.85;100.00
41862;BME280;27537;57.134;-2.136;2022-08-20T05:18:53;100173.44;;;13.01;100.00
41862;BME280;27537;57.134;-2.136;2022-08-20T05:21:20;100146.22;;;12.72;100.00
41862;BME280;27537;57.134;-2.136;2022-08-20T05:23:47;100154.31;;;12.83;100.00
41862;BME280;27537;57.134;-2.136;2022-08-20T05:26:15;100139.44;;;12.68;100.00
41862;BME280;27537;57.134;-2.136;2022-08-20T05:28:42;100145.75;;;12.96;100.00
41862;BME280;27537;57.134;-2.136;2022-08-20T05:31:28;100104.34;;;12.53;100.00
41862;BME280;27537;57.134;-2.136;2022-08-20T05:34:10;100143.22;;;12.78;100.00
41862;BME280;27537;57.134;-2.136;2022-08-20T05:36:40;100122.63;;;12.86;100.00
41862;BME280;27537;57.134;-2.136;2022-08-20T05:39:09;100153.72;;;12.94;100.00
41862;BME280;27537;57.134;-2.136;2022-08-20T05:41:37;100152.69;;;13.13;100.00
41862;BME280;27537;57.134;-2.136;2022-08-20T05:44:05;100145.63;;;13.13;100.00
41862;BME280;27537;57.134;-2.136;2022-08-20T05:46:38;100131.06;;;13.07;100.00
41862;BME280;27537;57.134;-2.136;2022-08-20T05:49:07;100105.28;;;13.14;100.00
41862;BME280;27537;57.134;-2.136;2022-08-20T05:51:35;100112.66;;;13.07;100.00
41862;BME280;27537;57.134;-2.136;2022-08-20T05:54:03;100125.78;;;13.23;100.00
41862;BME280;27537;57.134;-2.136;2022-08-20T05:56:31;100082.59;;;12.67;100.00
41862;BME280;27537;57.134;-2.136;2022-08-20T05:58:59;100115.25;;;13.23;100.00
41862;BME280;27537;57.134;-2.136;2022-08-20T06:01:30;100112.22;;;13.15;100.00
41862;BME280;27537;57.134;-2.136;2022-08-20T06:03:57;100104.06;;;13.36;100.00
41862;BME280;27537;57.134;-2.136;2022-08-20T06:06:43;100113.69;;;13.65;100.00
41862;BME280;27537;57.134;-2.136;2022-08-20T06:09:17;100111.22;;;13.77;100.00
41862;BME280;27537;57.134;-2.136;2022-08-20T06:12:03;100071.47;;;13.53;100.00
41862;BME280;27537;57.134;-2.136;2022-08-20T06:14:32;100032.13;;;13.51;100.00
41862;BME280;27537;57.134;-2.136;2022-08-20T06:17:04;100093.28;;;13.98;100.00
41862;BME280;27537;57.134;-2.136;2022-08-20T06:19:32;100052.78;;;13.72;100.00
41862;BME280;27537;57.134;-2.136;2022-08-20T06:22:00;100090.81;;;14.09;100.00
41862;BME280;27537;57.134;-2.136;2022-08-20T06:24:43;100050.13;;;14.00;100.00
41862;BME280;27537;57.134;-2.136;2022-08-20T06:27:13;100022.13;;;13.99;100.00
41862;BME280;27537;57.134;-2.136;2022-08-20T06:29:40;100014.78;;;14.04;100.00
41862;BME280;27537;57.134;-2.136;2022-08-20T06:32:07;100024.78;;;14.27;100.00
41862;BME280;27537;57.134;-2.136;2022-08-20T06:34:34;100041.50;;;14.40;100.00
41862;BME280;27537;57.134;-2.136;2022-08-20T06:37:01;100063.53;;;14.52;100.00
41862;BME280;27537;57.134;-2.136;2022-08-20T06:39:27;100040.59;;;14.54;100.00
41862;BME280;27537;57.134;-2.136;2022-08-20T06:41:56;99992.00;;;14.18;100.00
41862;BME280;27537;57.134;-2.136;2022-08-20T06:44:24;100018.41;;;14.16;100.00
41862;BME280;27537;57.134;-2.136;2022-08-20T06:46:51;99997.69;;;13.97;100.00
41862;BME280;27537;57.134;-2.136;2022-08-20T06:49:18;100022.06;;;14.28;100.00
41862;BME280;27537;57.134;-2.136;2022-08-20T06:51:45;99944.34;;;13.81;100.00
41862;BME280;27537;57.134;-2.136;2022-08-20T06:54:17;99970.13;;;14.03;100.00
41862;BME280;27537;57.134;-2.136;2022-08-20T06:56:44;99980.38;;;14.35;100.00
41862;BME280;27537;57.134;-2.136;2022-08-20T06:59:10;99953.03;;;14.50;100.00
41862;BME280;27537;57.134;-2.136;2022-08-20T07:01:37;99975.59;;;14.54;100.00
41862;BME280;27537;57.134;-2.136;2022-08-20T07:04:04;99939.22;;;14.47;100.00
41862;BME280;27537;57.134;-2.136;2022-08-20T07:06:33;99965.03;;;14.54;100.00
41862;BME280;27537;57.134;-2.136;2022-08-20T07:08:59;99944.88;;;14.40;100.00
41862;BME280;27537;57.134;-2.136;2022-08-20T07:11:26;99946.50;;;14.43;100.00
41862;BME280;27537;57.134;-2.136;2022-08-20T07:13:56;99930.16;;;14.51;100.00
41862;BME280;27537;57.134;-2.136;2022-08-20T07:16:24;99981.06;;;15.04;100.00
41862;BME280;27537;57.134;-2.136;2022-08-20T07:18:50;99917.38;;;14.59;100.00
41862;BME280;27537;57.134;-2.136;2022-08-20T07:21:17;99949.53;;;14.77;100.00
41862;BME280;27537;57.134;-2.136;2022-08-20T07:23:44;99928.69;;;14.47;100.00
41862;BME280;27537;57.134;-2.136;2022-08-20T07:26:11;99916.28;;;14.21;100.00
41862;BME280;27537;57.134;-2.136;2022-08-20T07:28:39;99913.72;;;14.47;100.00
41862;BME280;27537;57.134;-2.136;2022-08-20T07:31:06;99911.81;;;14.49;100.00
41862;BME280;27537;57.134;-2.136;2022-08-20T07:33:52;99924.16;;;14.49;100.00
41862;BME280;27537;57.134;-2.136;2022-08-20T07:36:19;99862.84;;;14.47;100.00
41862;BME280;27537;57.134;-2.136;2022-08-20T07:38:46;99890.47;;;14.54;100.00
41862;BME280;27537;57.134;-2.136;2022-08-20T07:41:13;99890.19;;;14.84;100.00
41862;BME280;27537;57.134;-2.136;2022-08-20T07:43:42;99905.59;;;15.40;100.00
41862;BME280;27537;57.134;-2.136;2022-08-20T07:46:16;99927.63;;;15.78;100.00
41862;BME280;27537;57.134;-2.136;2022-08-20T07:48:47;99898.59;;;16.37;100.00
41862;BME280;27537;57.134;-2.136;2022-08-20T07:51:18;99915.38;;;16.72;100.00
41862;BME280;27537;57.134;-2.136;2022-08-20T07:53:46;99929.59;;;16.46;100.00
41862;BME280;27537;57.134;-2.136;2022-08-20T07:56:16;99943.38;;;16.39;100.00
41862;BME280;27537;57.134;-2.136;2022-08-20T07:58:47;99990.00;;;16.40;100.00
41862;BME280;27537;57.134;-2.136;2022-08-20T08:01:24;99954.09;;;16.13;100.00
41862;BME280;27537;57.134;-2.136;2022-08-20T08:03:53;99979.69;;;16.00;100.00
41862;BME280;27537;57.134;-2.136;2022-08-20T08:06:22;99987.50;;;16.01;100.00
41862;BME280;27537;57.134;-2.136;2022-08-20T08:09:08;99951.53;;;15.87;100.00
41862;BME280;27537;57.134;-2.136;2022-08-20T08:11:38;99980.63;;;16.11;100.00
41862;BME280;27537;57.134;-2.136;2022-08-20T08:14:12;99957.66;;;15.88;100.00
41862;BME280;27537;57.134;-2.136;2022-08-20T08:16:40;99949.97;;;15.85;100.00
41862;BME280;27537;57.134;-2.136;2022-08-20T08:19:11;99895.28;;;15.87;100.00
41862;BME280;27537;57.134;-2.136;2022-08-20T08:21:40;99863.81;;;16.08;100.00
41862;BME280;27537;57.134;-2.136;2022-08-20T08:24:07;99904.94;;;16.70;100.00
41862;BME280;27537;57.134;-2.136;2022-08-20T08:26:34;99874.69;;;17.08;100.00
41862;BME280;27537;57.134;-2.136;2022-08-20T08:29:01;99878.63;;;16.68;100.00
41862;BME280;27537;57.134;-2.136;2022-08-20T08:31:28;99840.19;;;17.10;100.00
41862;BME280;27537;57.134;-2.136;2022-08-20T08:33:55;99845.06;;;17.48;100.00
41862;BME280;27537;57.134;-2.136;2022-08-20T08:36:22;99869.13;;;17.45;100.00
41862;BME280;27537;57.134;-2.136;2022-08-20T08:38:52;99874.06;;;17.50;100.00
41862;BME280;27537;57.134;-2.136;2022-08-20T08:41:28;99930.66;;;17.81;100.00
41862;BME280;27537;57.134;-2.136;2022-08-20T08:44:07;99888.63;;;17.33;100.00
41862;BME280;27537;57.134;-2.136;2022-08-20T08:46:42;99916.16;;;17.53;100.00
41862;BME280;27537;57.134;-2.136;2022-08-20T08:49:12;99879.28;;;16.95;100.00
41862;BME280;27537;57.134;-2.136;2022-08-20T08:51:50;99881.19;;;17.04;100.00
41862;BME280;27537;57.134;-2.136;2022-08-20T08:54:24;99899.16;;;17.67;100.00
41862;BME280;27537;57.134;-2.136;2022-08-20T08:56:52;99886.63;;;17.91;100.00
41862;BME280;27537;57.134;-2.136;2022-08-20T08:59:20;99824.84;;;17.47;100.00
41862;BME280;27537;57.134;-2.136;2022-08-20T09:01:51;99896.72;;;18.51;100.00
41862;BME280;27537;57.134;-2.136;2022-08-20T09:04:29;99835.34;;;17.81;100.00
41862;BME280;27537;57.134;-2.136;2022-08-20T09:07:00;99875.00;;;18.03;100.00
41862;BME280;27537;57.134;-2.136;2022-08-20T09:09:31;99832.75;;;17.70;100.00
41862;BME280;27537;57.134;-2.136;2022-08-20T09:12:06;99842.50;;;17.58;100.00
41862;BME280;27537;57.134;-2.136;2022-08-20T09:14:34;99838.72;;;17.39;100.00
41862;BME280;27537;57.134;-2.136;2022-08-20T09:17:01;99924.09;;;17.64;100.00
41862;BME280;27537;57.134;-2.136;2022-08-20T09:19:28;99875.25;;;17.57;100.00
41862;BME280;27537;57.134;-2.136;2022-08-20T09:21:55;99881.63;;;17.65;100.00
41862;BME280;27537;57.134;-2.136;2022-08-20T09:24:22;99904.38;;;18.00;100.00
41862;BME280;27537;57.134;-2.136;2022-08-20T09:26:49;99864.19;;;17.40;100.00
41862;BME280;27537;57.134;-2.136;2022-08-20T09:29:16;99890.16;;;17.58;100.00
41862;BME280;27537;57.134;-2.136;2022-08-20T09:31:43;99903.72;;;17.76;100.00
41862;BME280;27537;57.134;-2.136;2022-08-20T09:34:12;99839.94;;;17.24;100.00
41862;BME280;27537;57.134;-2.136;2022-08-20T09:36:39;99897.66;;;18.50;100.00
41862;BME280;27537;57.134;-2.136;2022-08-20T09:39:05;99893.06;;;18.52;100.00
41862;BME280;27537;57.134;-2.136;2022-08-20T09:41:32;99907.34;;;18.93;100.00
41862;BME280;27537;57.134;-2.136;2022-08-20T09:44:00;99906.78;;;18.99;100.00
41862;BME280;27537;57.134;-2.136;2022-08-20T09:46:28;99871.81;;;19.15;100.00
41862;BME280;27537;57.134;-2.136;2022-08-20T09:48:55;99820.13;;;19.09;100.00
41862;BME280;27537;57.134;-2.136;2022-08-20T09:51:23;99887.97;;;19.52;100.00
41862;BME280;27537;57.134;-2.136;2022-08-20T09:53:50;99911.28;;;19.89;100.00
41862;BME280;27537;57.134;-2.136;2022-08-20T09:56:18;99876.75;;;19.80;100.00
41862;BME280;27537;57.134;-2.136;2022-08-20T09:58:48;99933.84;;;20.24;100.00
41862;BME280;27537;57.134;-2.136;2022-08-20T10:01:18;99930.47;;;20.13;100.00
41862;BME280;27537;57.134;-2.136;2022-08-20T10:03:46;99927.66;;;20.53;100.00
41862;BME280;27537;57.134;-2.136;2022-08-20T10:06:15;99889.47;;;20.44;100.00
41862;BME280;27537;57.134;-2.136;2022-08-20T10:08:43;99877.53;;;20.68;100.00
41862;BME280;27537;57.134;-2.136;2022-08-20T10:11:12;99897.44;;;20.74;100.00
41862;BME280;27537;57.134;-2.136;2022-08-20T10:13:39;99915.81;;;21.04;100.00
41862;BME280;27537;57.134;-2.136;2022-08-20T10:16:06;99882.91;;;21.05;100.00
41862;BME280;27537;57.134;-2.136;2022-08-20T10:18:34;99890.75;;;21.07;100.00
41862;BME280;27537;57.134;-2.136;2022-08-20T10:21:00;99871.59;;;21.03;100.00
41862;BME280;27537;57.134;-2.136;2022-08-20T10:23:27;99842.50;;;21.20;100.00
41862;BME280;27537;57.134;-2.136;2022-08-20T10:25:54;99888.84;;;21.27;100.00
41862;BME280;27537;57.134;-2.136;2022-08-20T10:28:21;99896.00;;;21.54;100.00
41862;BME280;27537;57.134;-2.136;2022-08-20T10:30:51;99867.31;;;21.48;96.90
41862;BME280;27537;57.134;-2.136;2022-08-20T10:33:18;99899.06;;;21.59;89.33
41862;BME280;27537;57.134;-2.136;2022-08-20T10:35:46;99867.88;;;21.42;90.33
41862;BME280;27537;57.134;-2.136;2022-08-20T10:38:12;99886.72;;;21.31;91.44
41862;BME280;27537;57.134;-2.136;2022-08-20T10:40:39;99892.94;;;21.21;92.22
41862;BME280;27537;57.134;-2.136;2022-08-20T10:43:17;99895.97;;;20.99;88.10
41862;BME280;27537;57.134;-2.136;2022-08-20T10:45:44;99866.97;;;20.96;95.43
41862;BME280;27537;57.134;-2.136;2022-08-20T10:48:11;99923.31;;;20.91;90.60
41862;BME280;27537;57.134;-2.136;2022-08-20T10:50:38;99935.38;;;20.66;94.34
41862;BME280;27537;57.134;-2.136;2022-08-20T10:53:04;99920.25;;;20.76;89.65
41862;BME280;27537;57.134;-2.136;2022-08-20T10:55:31;99921.13;;;21.04;85.04
41862;BME280;27537;57.134;-2.136;2022-08-20T10:57:58;99908.66;;;21.05;79.13
41862;BME280;27537;57.134;-2.136;2022-08-20T11:00:25;99876.44;;;20.51;78.55
41862;BME280;27537;57.134;-2.136;2022-08-20T11:02:52;99893.50;;;20.48;78.41
41862;BME280;27537;57.134;-2.136;2022-08-20T11:05:20;99897.69;;;20.61;76.98
41862;BME280;27537;57.134;-2.136;2022-08-20T11:07:47;99950.75;;;20.53;70.06
41862;BME280;27537;57.134;-2.136;2022-08-20T11:10:24;99909.50;;;20.00;69.36
41862;BME280;27537;57.134;-2.136;2022-08-20T11:12:51;99929.22;;;20.26;71.97
41862;BME280;27537;57.134;-2.136;2022-08-20T11:15:18;99927.94;;;20.79;69.65
41862;BME280;27537;57.134;-2.136;2022-08-20T11:17:45;99903.31;;;21.15;68.63
41862;BME280;27537;57.134;-2.136;2022-08-20T11:20:15;99925.16;;;21.56;64.90
41862;BME280;27537;57.134;-2.136;2022-08-20T11:22:42;99905.16;;;21.70;61.32
41862;BME280;27537;57.134;-2.136;2022-08-20T11:25:09;99897.97;;;21.52;56.66
41862;BME280;27537;57.134;-2.136;2022-08-20T11:27:41;99869.31;;;21.46;55.86
41862;BME280;27537;57.134;-2.136;2022-08-20T11:30:10;99915.94;;;21.78;51.97
41862;BME280;27537;57.134;-2.136;2022-08-20T11:32:38;99914.72;;;22.08;52.94
41862;BME280;27537;57.134;-2.136;2022-08-20T11:35:05;99925.38;;;21.90;50.91
41862;BME280;27537;57.134;-2.136;2022-08-20T11:37:54;99928.44;;;22.49;51.89
41862;BME280;27537;57.134;-2.136;2022-08-20T11:40:22;99958.38;;;22.61;47.95
41862;BME280;27537;57.134;-2.136;2022-08-20T11:42:49;99905.38;;;22.40;46.69
41862;BME280;27537;57.134;-2.136;2022-08-20T11:45:36;99930.56;;;22.64;47.44
41862;BME280;27537;57.134;-2.136;2022-08-20T11:48:04;99933.25;;;22.10;47.19
41862;BME280;27537;57.134;-2.136;2022-08-20T11:50:31;99914.78;;;22.16;44.65
41862;BME280;27537;57.134;-2.136;2022-08-20T11:52:58;99906.13;;;22.32;43.63
41862;BME280;27537;57.134;-2.136;2022-08-20T11:55:27;99891.03;;;21.87;44.02
41862;BME280;27537;57.134;-2.136;2022-08-20T11:57:57;99937.75;;;22.27;44.01
41862;BME280;27537;57.134;-2.136;2022-08-20T12:00:27;99943.84;;;22.37;44.52
41862;BME280;27537;57.134;-2.136;2022-08-20T12:03:00;99916.16;;;22.03;44.04
41862;BME280;27537;57.134;-2.136;2022-08-20T12:05:27;99905.50;;;22.03;43.77
41862;BME280;27537;57.134;-2.136;2022-08-20T12:07:56;99930.03;;;22.06;42.94
41862;BME280;27537;57.134;-2.136;2022-08-20T12:10:25;99952.97;;;22.17;46.25
41862;BME280;27537;57.134;-2.136;2022-08-20T12:12:54;99941.69;;;22.05;43.27
41862;BME280;27537;57.134;-2.136;2022-08-20T12:15:22;99913.47;;;21.85;43.72
41862;BME280;27537;57.134;-2.136;2022-08-20T12:17:49;99927.44;;;22.14;44.61
41862;BME280;27537;57.134;-2.136;2022-08-20T12:20:16;99902.22;;;21.91;44.21
41862;BME280;27537;57.134;-2.136;2022-08-20T12:22:43;99861.50;;;21.80;45.81
41862;BME280;27537;57.134;-2.136;2022-08-20T12:25:11;99927.22;;;22.26;44.62
41862;BME280;27537;57.134;-2.136;2022-08-20T12:27:39;99964.56;;;21.80;44.41
41862;BME280;27537;57.134;-2.136;2022-08-20T12:30:09;99966.25;;;22.27;43.27
41862;BME280;27537;57.134;-2.136;2022-08-20T12:32:37;99973.75;;;22.13;43.82
41862;BME280;27537;57.134;-2.136;2022-08-20T12:35:05;99960.44;;;22.67;43.59
41862;BME280;27537;57.134;-2.136;2022-08-20T12:37:32;99943.56;;;22.13;44.00
41862;BME280;27537;57.134;-2.136;2022-08-20T12:40:01;99908.91;;;22.13;44.30
41862;BME280;27537;57.134;-2.136;2022-08-20T12:42:29;99941.06;;;22.65;44.01
41862;BME280;27537;57.134;-2.136;2022-08-20T12:44:59;99966.34;;;22.79;43.30
41862;BME280;27537;57.134;-2.136;2022-08-20T12:47:35;99970.44;;;22.47;43.86
41862;BME280;27537;57.134;-2.136;2022-08-20T12:50:15;99927.09;;;22.45;40.58
41862;BME280;27537;57.134;-2.136;2022-08-20T12:52:44;99963.13;;;22.49;40.04
41862;BME280;27537;57.134;-2.136;2022-08-20T12:55:13;99927.78;;;22.29;39.96